createdAt,value
2022-09-28T00:01:58.222Z,0.73
2022-09-28T00:04:26.656Z,0.90
2022-09-28T00:06:55.986Z,1.05
2022-09-28T00:09:24.364Z,1.10
2022-09-28T00:11:53.671Z,0.80
2022-09-28T00:14:23.551Z,0.80
2022-09-28T00:16:51.954Z,0.90
2022-09-28T00:19:20.050Z,1.10
2022-09-28T00:21:47.985Z,0.77
2022-09-28T00:24:18.717Z,0.70
2022-09-28T00:26:49.237Z,0.70
2022-09-28T00:29:20.705Z,0.98
2022-09-28T00:31:50.359Z,0.70
2022-09-28T00:34:18.819Z,0.85
2022-09-28T00:36:48.427Z,0.70
2022-09-28T00:39:18.015Z,0.60
2022-09-28T00:41:46.606Z,0.70
2022-09-28T00:44:39.369Z,0.63
2022-09-28T00:47:18.499Z,0.70
2022-09-28T00:49:50.221Z,0.73
2022-09-28T00:52:23.020Z,0.70
2022-09-28T00:54:53.686Z,1.23
2022-09-28T00:57:23.154Z,0.70
2022-09-28T00:59:52.350Z,0.80
2022-09-28T01:02:21.770Z,0.60
2022-09-28T01:04:50.357Z,0.60
2022-09-28T01:07:19.275Z,0.70
2022-09-28T01:09:48.697Z,0.73
2022-09-28T01:12:18.117Z,0.57
2022-09-28T01:14:46.625Z,0.70
2022-09-28T01:17:16.508Z,0.68
2022-09-28T01:20:28.171Z,0.80
2022-09-28T01:23:42.096Z,0.70
2022-09-28T01:26:48.785Z,0.70
2022-09-28T01:29:28.927Z,0.60
2022-09-28T01:32:04.476Z,0.70
2022-09-28T01:34:40.141Z,0.70
2022-09-28T01:37:12.467Z,0.70
2022-09-28T01:39:44.518Z,0.85
2022-09-28T01:42:18.069Z,0.90
2022-09-28T01:44:51.089Z,0.60
2022-09-28T01:47:22.131Z,0.95
2022-09-28T01:49:55.922Z,0.80
2022-09-28T01:52:29.703Z,0.90
2022-09-28T01:55:01.295Z,0.77
2022-09-28T01:57:38.444Z,0.70
2022-09-28T02:00:11.856Z,0.80
2022-09-28T02:02:49.426Z,1.13
2022-09-28T02:05:25.785Z,0.50
2022-09-28T02:08:00.548Z,0.70
2022-09-28T02:10:37.045Z,0.90
2022-09-28T02:13:10.727Z,0.60
2022-09-28T02:15:46.513Z,0.70
2022-09-28T02:18:15.239Z,0.60
2022-09-28T02:20:47.813Z,0.60
2022-09-28T02:23:17.981Z,0.60
2022-09-28T02:25:49.884Z,0.77
2022-09-28T02:28:20.070Z,0.90
2022-09-28T02:30:49.585Z,0.70
2022-09-28T02:33:26.880Z,0.70
2022-09-28T02:35:55.418Z,0.80
2022-09-28T02:38:25.870Z,0.55
2022-09-28T02:41:03.869Z,0.75
2022-09-28T02:43:39.029Z,0.77
2022-09-28T02:46:18.855Z,0.80
2022-09-28T02:49:20.992Z,0.50
2022-09-28T02:52:05.757Z,0.63
2022-09-28T02:55:05.541Z,0.60
2022-09-28T02:57:46.134Z,0.55
2022-09-28T03:00:21.208Z,0.70
2022-09-28T03:03:00.294Z,0.80
2022-09-28T03:05:38.363Z,0.60
2022-09-28T03:08:12.964Z,0.60
2022-09-28T03:10:45.641Z,0.60
2022-09-28T03:13:16.459Z,0.97
2022-09-28T03:15:48.499Z,0.80
2022-09-28T03:18:18.852Z,0.70
2022-09-28T03:20:49.973Z,0.63
2022-09-28T03:23:25.666Z,0.50
2022-09-28T03:25:54.832Z,0.60
2022-09-28T03:28:23.375Z,0.68
2022-09-28T03:30:51.555Z,0.80
2022-09-28T03:33:21.083Z,0.80
2022-09-28T03:35:50.358Z,0.75
2022-09-28T03:38:20.489Z,0.63
2022-09-28T03:40:56.992Z,0.88
2022-09-28T03:43:26.514Z,1.10
2022-09-28T03:45:59.317Z,1.10
2022-09-28T03:48:32.939Z,0.70
2022-09-28T03:51:03.092Z,0.83
2022-09-28T03:53:31.649Z,0.65
2022-09-28T03:56:05.435Z,1.17
2022-09-28T03:58:35.088Z,0.70
2022-09-28T04:01:05.164Z,0.85
2022-09-28T04:03:34.786Z,0.70
2022-09-28T04:06:03.578Z,0.52
2022-09-28T04:08:32.015Z,0.75
2022-09-28T04:11:01.058Z,0.77
2022-09-28T04:13:30.753Z,1.00
2022-09-28T04:16:03.858Z,0.90
2022-09-28T04:18:36.310Z,0.68
2022-09-28T04:21:13.567Z,0.88
2022-09-28T04:23:48.837Z,0.70
2022-09-28T04:26:18.955Z,0.70
2022-09-28T04:29:06.855Z,0.70
2022-09-28T04:31:40.036Z,0.60
2022-09-28T04:34:10.136Z,0.60
2022-09-28T04:36:38.765Z,0.60
2022-09-28T04:39:07.160Z,0.70
2022-09-28T04:41:37.254Z,0.60
2022-09-28T04:44:05.498Z,0.80
2022-09-28T04:46:35.946Z,1.65
2022-09-28T04:49:25.010Z,0.70
2022-09-28T04:51:55.212Z,0.70
2022-09-28T04:54:23.663Z,0.60
2022-09-28T04:56:52.936Z,0.50
2022-09-28T04:59:21.020Z,0.70
2022-09-28T05:01:49.474Z,0.60
2022-09-28T05:04:37.426Z,1.35
2022-09-28T05:07:05.799Z,1.57
2022-09-28T05:09:38.281Z,0.93
2022-09-28T05:12:06.917Z,0.90
2022-09-28T05:14:35.351Z,0.70
2022-09-28T05:17:05.657Z,0.70
2022-09-28T05:19:57.009Z,0.70
2022-09-28T05:22:25.429Z,0.60
2022-09-28T05:24:58.299Z,0.60
2022-09-28T05:27:26.882Z,0.80
2022-09-28T05:30:13.807Z,0.60
2022-09-28T05:33:15.829Z,0.77
2022-09-28T05:35:54.442Z,1.10
2022-09-28T05:38:24.686Z,0.68
2022-09-28T05:40:53.455Z,0.80
2022-09-28T05:43:23.052Z,0.70
2022-09-28T05:45:55.419Z,1.00
2022-09-28T05:48:24.435Z,0.85
2022-09-28T05:50:55.179Z,0.60
2022-09-28T05:53:36.917Z,2.35
2022-09-28T05:56:06.336Z,5.07
2022-09-28T05:58:39.867Z,1.27
2022-09-28T06:01:09.782Z,1.30
2022-09-28T06:03:38.750Z,0.88
2022-09-28T06:06:08.260Z,0.80
2022-09-28T06:08:37.761Z,0.80
2022-09-28T06:11:38.604Z,0.90
2022-09-28T06:14:27.459Z,0.70
2022-09-28T06:16:59.960Z,0.70
2022-09-28T06:19:28.415Z,0.70
2022-09-28T06:22:24.197Z,0.65
2022-09-28T06:25:00.220Z,0.80
2022-09-28T06:27:28.608Z,0.85
2022-09-28T06:29:57.033Z,0.85
2022-09-28T06:32:25.709Z,0.77
2022-09-28T06:34:56.441Z,0.73
2022-09-28T06:37:28.937Z,0.80
2022-09-28T06:39:57.985Z,0.57
2022-09-28T06:42:26.565Z,0.70
2022-09-28T06:45:13.796Z,0.70
2022-09-28T06:47:57.514Z,0.63
2022-09-28T06:50:35.961Z,0.50
2022-09-28T06:53:24.220Z,0.80
2022-09-28T06:55:58.403Z,0.47
2022-09-28T06:58:31.557Z,1.42
2022-09-28T07:01:01.188Z,1.10
2022-09-28T07:03:34.303Z,0.60
2022-09-28T07:06:24.210Z,0.60
2022-09-28T07:09:30.358Z,0.68
2022-09-28T07:12:30.227Z,0.50
2022-09-28T07:15:04.990Z,0.40
2022-09-28T07:17:42.406Z,0.53
2022-09-28T07:20:19.435Z,0.43
2022-09-28T07:22:54.214Z,0.43
2022-09-28T07:25:25.750Z,0.65
2022-09-28T07:28:10.268Z,0.88
2022-09-28T07:31:11.939Z,0.67
2022-09-28T07:34:00.653Z,0.50
2022-09-28T07:36:35.267Z,0.50
2022-09-28T07:39:04.593Z,0.57
2022-09-28T07:41:34.161Z,0.70
2022-09-28T07:44:06.563Z,0.90
2022-09-28T07:46:37.198Z,0.63
2022-09-28T07:49:19.407Z,0.50
2022-09-28T07:52:12.390Z,0.47
2022-09-28T07:55:06.629Z,0.50
2022-09-28T07:58:01.831Z,0.67
2022-09-28T08:00:42.256Z,0.50
2022-09-28T08:03:10.656Z,0.50
2022-09-28T08:05:41.196Z,0.57
2022-09-28T08:08:09.633Z,0.50
2022-09-28T08:10:38.665Z,0.50
2022-09-28T08:13:23.547Z,0.50
2022-09-28T08:16:14.122Z,0.80
2022-09-28T08:18:55.234Z,0.73
2022-09-28T08:21:42.414Z,0.70
2022-09-28T08:24:12.851Z,0.83
2022-09-28T08:26:41.415Z,0.60
2022-09-28T08:29:11.451Z,0.90
2022-09-28T08:31:45.630Z,0.80
2022-09-28T08:34:37.293Z,0.52
2022-09-28T08:37:18.749Z,0.80
2022-09-28T08:40:06.387Z,0.60
2022-09-28T08:42:46.044Z,0.85
2022-09-28T08:45:35.928Z,0.60
2022-09-28T08:48:35.472Z,0.70
2022-09-28T08:51:21.214Z,0.70
2022-09-28T08:54:08.215Z,0.60
2022-09-28T08:56:53.303Z,0.90
2022-09-28T08:59:25.514Z,0.50
2022-09-28T09:02:04.361Z,0.60
2022-09-28T09:04:35.102Z,0.60
2022-09-28T09:07:51.181Z,0.70
2022-09-28T09:10:36.411Z,0.90
2022-09-28T09:13:15.183Z,0.70
2022-09-28T09:15:51.802Z,0.90
2022-09-28T09:18:38.527Z,0.70
2022-09-28T09:21:41.191Z,0.73
2022-09-28T09:24:26.152Z,0.70
2022-09-28T09:27:05.388Z,0.70
2022-09-28T09:29:52.229Z,0.55
2022-09-28T09:32:35.496Z,0.70
2022-09-28T09:35:30.846Z,0.60
2022-09-28T09:38:50.596Z,0.50
2022-09-28T09:41:50.470Z,0.63
2022-09-28T09:44:39.669Z,0.80
2022-09-28T09:47:43.068Z,0.80
2022-09-28T09:50:30.160Z,0.50
2022-09-28T09:53:05.725Z,0.70
2022-09-28T09:55:40.713Z,0.70
2022-09-28T09:58:25.326Z,0.60
2022-09-28T10:01:09.367Z,0.70
2022-09-28T10:03:59.096Z,1.00
2022-09-28T10:06:37.509Z,1.10
2022-09-28T10:09:12.579Z,1.10
2022-09-28T10:11:50.184Z,0.98
2022-09-28T10:14:21.523Z,1.20
2022-09-28T10:17:00.820Z,1.17
2022-09-28T10:19:51.307Z,0.80
2022-09-28T10:22:53.396Z,1.00
2022-09-28T10:25:23.903Z,0.90
2022-09-28T10:27:53.157Z,1.23
2022-09-28T10:30:24.314Z,0.70
2022-09-28T10:32:59.047Z,0.90
2022-09-28T10:35:40.791Z,1.17
2022-09-28T10:38:18.517Z,0.93
2022-09-28T10:40:51.751Z,0.90
2022-09-28T10:44:06.277Z,0.80
2022-09-28T10:46:41.074Z,0.95
2022-09-28T10:49:18.261Z,0.60
2022-09-28T10:51:54.761Z,0.80
2022-09-28T10:54:29.766Z,0.93
2022-09-28T10:57:00.934Z,1.00
2022-09-28T10:59:43.146Z,0.80
2022-09-28T11:02:35.436Z,0.70
2022-09-28T11:05:23.805Z,1.05
2022-09-28T11:07:56.000Z,0.77
2022-09-28T11:10:33.485Z,0.90
2022-09-28T11:13:15.992Z,1.05
2022-09-28T11:15:53.033Z,0.70
2022-09-28T11:18:32.407Z,0.88
2022-09-28T11:21:12.931Z,1.30
2022-09-28T11:23:57.842Z,0.70
2022-09-28T11:26:27.884Z,0.90
2022-09-28T11:28:56.388Z,0.77
2022-09-28T11:31:37.665Z,0.90
2022-09-28T11:34:57.429Z,1.00
2022-09-28T11:37:46.733Z,1.00
2022-09-28T11:40:49.222Z,1.30
2022-09-28T11:44:17.394Z,1.23
2022-09-28T11:47:35.322Z,1.40
2022-09-28T11:50:08.890Z,1.37
2022-09-28T11:52:42.553Z,1.38
2022-09-28T11:55:18.424Z,1.42
2022-09-28T11:57:55.883Z,1.17
2022-09-28T12:00:26.243Z,1.38
2022-09-28T12:03:06.346Z,1.20
2022-09-28T12:05:39.585Z,1.25
2022-09-28T12:08:14.828Z,1.35
2022-09-28T12:11:10.772Z,1.77
2022-09-28T12:14:04.069Z,1.20
2022-09-28T12:17:04.063Z,1.60
2022-09-28T12:19:33.160Z,1.27
2022-09-28T12:22:04.590Z,1.60
2022-09-28T12:24:37.696Z,1.45
2022-09-28T12:27:12.384Z,1.52
2022-09-28T12:29:47.469Z,1.20
2022-09-28T12:32:27.671Z,1.55
2022-09-28T12:34:56.596Z,1.40
2022-09-28T12:37:45.354Z,1.30
2022-09-28T12:40:33.653Z,2.55
2022-09-28T12:43:23.385Z,1.20
2022-09-28T12:46:17.680Z,1.45
2022-09-28T12:50:01.893Z,1.50
2022-09-28T12:51:59.949Z,1.70
2022-09-28T12:54:55.450Z,1.60
2022-09-28T12:57:38.637Z,1.70
2022-09-28T13:00:10.922Z,1.40
2022-09-28T13:03:09.616Z,1.50
2022-09-28T13:06:19.483Z,1.50
2022-09-28T13:09:01.232Z,1.58
2022-09-28T13:15:06.510Z,2.03
2022-09-28T13:18:00.013Z,1.50
2022-09-28T13:20:36.268Z,1.65
2022-09-28T13:23:17.849Z,1.35
2022-09-28T13:25:53.184Z,2.80
2022-09-28T13:28:27.303Z,2.60
2022-09-28T13:33:36.897Z,3.00
2022-09-28T13:36:25.926Z,1.90
2022-09-28T13:38:55.457Z,1.60
2022-09-28T13:41:29.914Z,1.80
2022-09-28T13:44:22.193Z,1.58
2022-09-28T13:47:02.175Z,1.83
2022-09-28T13:49:41.621Z,2.00
2022-09-28T13:52:23.682Z,1.40
2022-09-28T13:55:04.373Z,2.00
2022-09-28T14:01:38.628Z,1.35
2022-09-28T14:04:17.551Z,1.55
2022-09-28T14:06:51.405Z,1.77
2022-09-28T14:09:41.502Z,1.70
2022-09-28T14:12:45.032Z,2.00
2022-09-28T14:15:45.143Z,1.50
2022-09-28T14:18:27.577Z,1.30
2022-09-28T14:21:24.073Z,1.40
2022-09-28T14:24:04.300Z,1.30
2022-09-28T14:27:03.840Z,1.55
2022-09-28T14:29:34.532Z,1.17
2022-09-28T14:32:52.606Z,1.63
2022-09-28T14:35:35.536Z,1.30
2022-09-28T14:38:25.354Z,1.58
2022-09-28T14:41:12.730Z,1.70
2022-09-28T14:44:01.649Z,1.40
2022-09-28T14:46:43.774Z,1.65
2022-09-28T14:50:02.879Z,1.50
2022-09-28T14:52:45.941Z,1.63
2022-09-28T14:55:20.318Z,1.63
2022-09-28T14:57:59.358Z,1.88
2022-09-28T15:00:34.485Z,1.42
2022-09-28T15:03:30.112Z,1.80
2022-09-28T15:05:59.508Z,1.15
2022-09-28T15:08:38.658Z,1.27
2022-09-28T15:11:17.467Z,1.23
2022-09-28T15:13:46.049Z,1.30
2022-09-28T15:16:18.563Z,1.10
2022-09-28T15:19:08.740Z,1.00
2022-09-28T15:24:32.797Z,1.00
2022-09-28T15:27:01.170Z,1.00
2022-09-28T15:29:31.713Z,0.90
2022-09-28T15:32:00.096Z,1.15
2022-09-28T15:34:47.959Z,1.10
2022-09-28T15:37:19.004Z,1.00
2022-09-28T15:39:49.293Z,1.30
2022-09-28T15:42:18.798Z,1.30
2022-09-28T15:45:07.786Z,1.17
2022-09-28T15:47:38.789Z,1.45
2022-09-28T15:50:11.837Z,1.30
2022-09-28T15:52:47.243Z,1.20
2022-09-28T15:55:25.026Z,1.10
2022-09-28T15:58:12.893Z,1.20
2022-09-28T16:00:42.506Z,1.20
2022-09-28T16:03:23.585Z,1.30
2022-09-28T16:05:53.746Z,1.50
2022-09-28T16:12:48.703Z,1.13
2022-09-28T16:15:21.323Z,1.10
2022-09-28T16:17:55.007Z,1.10
2022-09-28T16:20:29.231Z,1.33
2022-09-28T16:23:03.548Z,1.20
2022-09-28T16:25:32.020Z,1.42
2022-09-28T16:28:01.752Z,1.40
2022-09-28T16:30:32.383Z,1.48
2022-09-28T16:33:02.551Z,1.50
2022-09-28T16:35:32.521Z,1.10
2022-09-28T16:38:11.155Z,1.20
2022-09-28T16:40:46.211Z,1.67
2022-09-28T16:43:29.638Z,1.35
2022-09-28T16:46:03.389Z,1.30
2022-09-28T16:48:33.913Z,2.10
2022-09-28T16:51:02.518Z,2.75
2022-09-28T16:53:48.254Z,1.85
2022-09-28T16:56:16.686Z,1.58
2022-09-28T16:58:49.158Z,1.30
2022-09-28T17:01:17.684Z,1.47
2022-09-28T17:03:47.432Z,1.45
2022-09-28T17:06:20.287Z,1.73
2022-09-28T17:08:48.950Z,1.30
2022-09-28T17:11:23.765Z,1.60
2022-09-28T17:13:56.914Z,1.47
2022-09-28T17:16:49.832Z,1.60
2022-09-28T17:19:25.563Z,1.33
2022-09-28T17:21:54.061Z,1.60
2022-09-28T17:24:22.492Z,1.65
2022-09-28T17:26:51.907Z,2.20
2022-09-28T17:29:23.671Z,1.80
2022-09-28T17:31:53.005Z,2.03
2022-09-28T17:34:31.597Z,1.95
2022-09-28T17:36:59.997Z,2.10
2022-09-28T17:39:28.418Z,2.23
2022-09-28T17:41:56.748Z,2.10
2022-09-28T17:45:05.870Z,1.90
2022-09-28T17:47:34.489Z,1.83
2022-09-28T17:50:02.996Z,2.13
2022-09-28T17:52:32.250Z,2.20
2022-09-28T17:55:00.638Z,2.40
2022-09-28T17:57:29.037Z,2.45
2022-09-28T17:59:58.559Z,2.50
2022-09-28T18:02:27.044Z,2.25
2022-09-28T18:04:56.169Z,2.50
2022-09-28T18:07:26.682Z,2.17
2022-09-28T18:09:56.954Z,2.50
2022-09-28T18:12:25.874Z,2.00
2022-09-28T18:14:54.635Z,1.90
2022-09-28T18:17:24.421Z,2.30
2022-09-28T18:19:53.107Z,3.25
2022-09-28T18:22:21.257Z,2.53
2022-09-28T18:24:49.667Z,2.00
2022-09-28T18:27:18.894Z,1.50
2022-09-28T18:29:49.806Z,1.70
2022-09-28T18:32:18.228Z,1.30
2022-09-28T18:34:47.843Z,1.23
2022-09-28T18:37:16.301Z,1.00
2022-09-28T18:39:46.038Z,2.15
2022-09-28T18:42:20.663Z,1.50
2022-09-28T18:44:52.252Z,1.40
2022-09-28T18:47:22.492Z,2.10
2022-09-28T18:49:52.134Z,1.42
2022-09-28T18:52:20.529Z,1.55
2022-09-28T18:54:50.537Z,1.20
2022-09-28T18:57:19.529Z,1.60
2022-09-28T18:59:47.887Z,1.55
2022-09-28T19:02:17.737Z,1.55
2022-09-28T19:04:58.232Z,1.33
2022-09-28T19:07:29.215Z,1.50
2022-09-28T19:10:00.045Z,1.40
2022-09-28T19:12:28.568Z,1.40
2022-09-28T19:14:57.153Z,1.92
2022-09-28T19:17:29.766Z,2.00
2022-09-28T19:19:59.189Z,1.40
2022-09-28T19:22:27.756Z,1.00
2022-09-28T19:24:56.595Z,1.05
2022-09-28T19:27:25.034Z,1.00
2022-09-28T19:29:53.463Z,1.17
2022-09-28T19:32:21.603Z,1.03
2022-09-28T19:34:51.903Z,1.20
2022-09-28T19:37:21.305Z,0.90
2022-09-28T19:39:49.785Z,2.10
2022-09-28T19:42:18.313Z,1.40
2022-09-28T19:44:47.412Z,1.40
2022-09-28T19:47:19.960Z,1.00
2022-09-28T19:49:49.131Z,1.92
2022-09-28T19:52:20.335Z,0.95
2022-09-28T19:54:54.676Z,1.30
2022-09-28T19:57:25.865Z,1.40
2022-09-28T19:59:57.851Z,1.10
2022-09-28T20:02:31.376Z,1.45
2022-09-28T20:04:59.721Z,1.00
2022-09-28T20:07:33.007Z,1.13
2022-09-28T20:10:07.283Z,1.00
2022-09-28T20:12:37.435Z,0.98
2022-09-28T20:15:10.608Z,8.27
2022-09-28T20:17:39.040Z,2.10
2022-09-28T20:20:07.800Z,1.63
2022-09-28T20:22:37.018Z,2.40
2022-09-28T20:25:09.994Z,2.45
2022-09-28T20:27:45.030Z,1.40
2022-09-28T20:30:15.169Z,2.83
2022-09-28T20:32:48.743Z,6.22
2022-09-28T20:35:30.328Z,7.30
2022-09-28T20:38:08.022Z,7.50
2022-09-28T20:40:37.781Z,3.55
2022-09-28T20:43:07.051Z,7.70
2022-09-28T20:45:37.128Z,3.45
2022-09-28T20:48:08.647Z,8.57
2022-09-28T20:50:36.755Z,11.70
2022-09-28T20:53:04.977Z,7.55
2022-09-28T20:55:33.883Z,3.38
2022-09-28T20:58:07.671Z,4.20
2022-09-28T21:00:38.405Z,1.77
2022-09-28T21:03:09.190Z,1.60
2022-09-28T21:05:37.669Z,3.03
2022-09-28T21:08:05.764Z,4.78
2022-09-28T21:10:34.142Z,3.53
2022-09-28T21:13:03.236Z,1.20
2022-09-28T21:15:32.672Z,0.85
2022-09-28T21:18:01.080Z,6.43
2022-09-28T21:20:29.162Z,1.77
2022-09-28T21:22:57.543Z,1.30
2022-09-28T21:25:25.878Z,0.83
2022-09-28T21:27:54.062Z,0.90
2022-09-28T21:30:22.160Z,1.20
2022-09-28T21:32:53.104Z,1.20
2022-09-28T21:35:21.591Z,1.05
2022-09-28T21:38:00.139Z,1.10
2022-09-28T21:40:29.997Z,1.10
2022-09-28T21:43:01.709Z,1.40
2022-09-28T21:45:31.314Z,1.00
2022-09-28T21:48:06.743Z,1.13
2022-09-28T21:51:10.311Z,1.20
2022-09-28T21:54:19.632Z,0.95
2022-09-28T21:56:48.331Z,1.15
2022-09-28T21:59:16.779Z,1.00
2022-09-28T22:01:45.238Z,1.00
2022-09-28T22:04:14.843Z,1.10
2022-09-28T22:06:43.238Z,1.10
2022-09-28T22:09:11.546Z,1.15
2022-09-28T22:11:39.848Z,1.40
2022-09-28T22:14:08.495Z,1.20
2022-09-28T22:16:36.948Z,0.93
2022-09-28T22:19:05.343Z,1.02
2022-09-28T22:21:43.453Z,1.00
2022-09-28T22:24:12.009Z,1.30
2022-09-28T22:26:40.456Z,1.40
2022-09-28T22:29:13.458Z,1.30
2022-09-28T22:31:42.526Z,1.20
2022-09-28T22:34:11.261Z,1.30
2022-09-28T22:36:40.633Z,1.00
2022-09-28T22:39:09.040Z,1.17
2022-09-28T22:41:37.418Z,0.80
2022-09-28T22:44:05.851Z,0.90
2022-09-28T22:46:33.939Z,4.82
2022-09-28T22:49:02.728Z,2.70
2022-09-28T22:51:31.783Z,1.50
2022-09-28T22:54:01.393Z,1.00
2022-09-28T22:56:30.088Z,0.90
2022-09-28T22:58:58.339Z,1.30
2022-09-28T23:01:27.959Z,0.90
2022-09-28T23:03:56.903Z,1.10
2022-09-28T23:06:27.869Z,1.00
2022-09-28T23:08:56.329Z,0.90
2022-09-28T23:11:25.815Z,1.20
2022-09-28T23:13:55.710Z,0.95
2022-09-28T23:16:25.584Z,1.15
2022-09-28T23:18:54.534Z,1.33
2022-09-28T23:21:25.883Z,1.10
2022-09-28T23:23:56.222Z,1.20
2022-09-28T23:26:28.081Z,1.20
2022-09-28T23:29:00.455Z,1.05
2022-09-28T23:31:30.630Z,1.20
2022-09-28T23:33:59.400Z,1.27
2022-09-28T23:36:27.908Z,1.30
2022-09-28T23:38:56.426Z,1.25
2022-09-28T23:41:29.268Z,1.10
2022-09-28T23:43:57.828Z,1.50
2022-09-28T23:46:26.278Z,1.00
2022-09-28T23:48:54.500Z,1.23
2022-09-28T23:51:22.952Z,1.25
2022-09-28T23:53:51.317Z,1.27
2022-09-28T23:56:19.697Z,1.30
2022-09-28T23:58:49.055Z,1.20
